Time;durP1;ratioP1;P1;durP2;ratioP2;P2;SDS_P1;SDS_P2;PMS_P1;PMS_P2;Temp;Humidity;BMP_temperature;BMP_pressure;BME280_temperature;BME280_humidity;BME280_pressure;Samples;Min_cycle;Max_cycle;Signal;HPM_P1;HPM_P2
2022/04/27 00:04:08;;;;;;;;;;;10.00;96.00;;;;;;6182819;23;19999;31
2022/04/27 00:09:19;;;;;;;;;;;9.90;96.70;;;;;;6206534;22;19927;-82
2022/04/27 01:15:51;;;;;;;;;;;9.00;97.90;;;;;;6191558;22;19911;31
2022/04/27 01:24:36;;;;;;;;;;;9.00;98.00;;;;;;6179512;23;19940;-83
2022/04/27 01:30:11;;;;;;;;;;;8.20;97.90;;;;;;6202058;23;19948;-82
2022/04/27 01:40:46;;;;;;;;;;;8.70;98.70;;;;;;6208963;23;19943;-80
2022/04/27 01:43:15;;;;;;;;;;;8.50;99.10;;;;;;6241295;23;19904;-82
2022/04/27 01:45:49;;;;;;;;;;;6.80;98.30;;;;;;6215150;23;19919;-81
2022/04/27 01:48:22;;;;;;;;;;;8.90;98.90;;;;;;6216392;23;19931;-84
2022/04/27 01:58:54;;;;;;;;;;;8.50;98.90;;;;;;6179714;23;19904;-82
2022/04/27 02:01:25;;;;;;;;;;;9.20;99.10;;;;;;6187396;23;19896;-84
2022/04/27 02:11:43;;;;;;;;;;;7.90;99.30;;;;;;6209313;23;19909;-83
2022/04/27 02:34:43;;;;;;;;;;;8.20;99.70;;;;;;6132557;23;19935;31
2022/04/27 02:37:12;;;;;;;;;;;8.00;99.70;;;;;;6116760;23;19948;-80
2022/04/27 03:03:23;;;;;;;;;;;7.90;99.90;;;;;;6166797;23;19920;-82
2022/04/27 03:26:47;;;;;;;;;;;7.50;99.90;;;;;;6192168;23;19921;-84
2022/04/27 03:43:09;;;;;;;;;;;7.40;99.90;;;;;;6191743;23;19911;-85
2022/04/27 03:48:36;;;;;;;;;;;7.40;99.90;;;;;;6195107;23;19919;-82
2022/04/27 04:23:41;;;;;;;;;;;7.40;99.90;;;;;;6199002;23;19948;-83
2022/04/27 04:31:50;;;;;;;;;;;7.30;99.90;;;;;;6198422;23;19924;-85
2022/04/27 04:34:19;;;;;;;;;;;5.90;99.90;;;;;;6188853;23;19920;-83
2022/04/27 04:39:36;;;;;;;;;;;7.30;99.90;;;;;;6172135;23;19916;-83
2022/04/27 06:21:04;;;;;;;;;;;10.90;94.10;;;;;;6169097;23;19919;-85
2022/04/27 06:35:50;;;;;;;;;;;12.20;92.60;;;;;;6172042;23;19958;-89
2022/04/27 06:38:24;;;;;;;;;;;13.30;92.20;;;;;;6150218;23;19935;-88
2022/04/27 06:40:50;;;;;;;;;;;12.90;92.00;;;;;;6198232;23;19908;-89
2022/04/27 06:51:04;;;;;;;;;;;12.50;90.60;;;;;;6166533;23;20390;-89
2022/04/27 06:53:33;;;;;;;;;;;9.50;89.30;;;;;;6169335;23;19974;-89
2022/04/27 06:58:50;;;;;;;;;;;13.70;89.30;;;;;;6160869;23;19929;-90
2022/04/27 07:01:28;;;;;;;;;;;13.50;88.50;;;;;;6112541;23;19917;-89
2022/04/27 07:04:00;;;;;;;;;;;13.30;87.00;;;;;;6137700;23;19959;-90
2022/04/27 07:06:45;;;;;;;;;;;14.10;86.90;;;;;;6134187;23;20288;-89
2022/04/27 07:09:16;;;;;;;;;;;10.80;84.40;;;;;;6165418;23;20123;-89
2022/04/27 07:11:57;;;;;;;;;;;14.40;85.20;;;;;;6166965;23;19904;-88
2022/04/27 07:17:24;;;;;;;;;;;;;;;;;;;;;
2022/04/27 07:25:41;;;;;;;;;;;14.90;82.60;;;;;;6160728;23;20375;-86
2022/04/27 07:28:12;;;;;;;;;;;14.90;81.30;;;;;;6143019;23;19947;-87
2022/04/27 07:30:44;;;;;;;;;;;15.40;80.40;;;;;;6168446;23;20411;-87
2022/04/27 07:33:10;;;;;;;;;;;15.30;79.10;;;;;;6141734;23;19905;-88
2022/04/27 07:35:54;;;;;;;;;;;15.70;81.90;;;;;;6148354;22;19926;-88
2022/04/27 07:41:19;;;;;;;;;;;15.90;76.90;;;;;;6142884;23;19948;-88
2022/04/27 07:43:51;;;;;;;;;;;15.50;75.50;;;;;;6171717;23;20384;-88
2022/04/27 07:49:00;;;;;;;;;;;16.80;74.20;;;;;;6162901;23;19950;-83
2022/04/27 07:51:59;;;;;;;;;;;16.60;73.20;;;;;;6143312;23;19953;-83
2022/04/27 07:54:36;;;;;;;;;;;16.10;73.10;;;;;;6144377;23;19905;-82
2022/04/27 07:57:08;;;;;;;;;;;17.90;72.00;;;;;;6153876;23;19916;-83
2022/04/27 07:59:34;;;;;;;;;;;17.20;70.40;;;;;;6144508;23;20071;-85
2022/04/27 08:07:21;;;;;;;;;;;17.30;69.10;;;;;;6163847;23;19924;-84
2022/04/27 08:09:47;;;;;;;;;;;19.40;69.20;;;;;;6143093;23;20335;-83
2022/04/27 08:23:59;;;;;;;;;;;18.00;65.00;;;;;;6175852;22;20493;-84
2022/04/27 08:26:31;;;;;;;;;;;18.00;64.70;;;;;;6200549;23;19918;-83
2022/04/27 08:29:05;;;;;;;;;;;20.50;66.10;;;;;;6173910;23;20408;-85
2022/04/27 08:31:40;;;;;;;;;;;17.00;64.10;;;;;;6174381;23;20573;-84
2022/04/27 08:34:37;;;;;;;;;;;18.80;64.70;;;;;;6165781;23;19915;-83
2022/04/27 08:37:11;;;;;;;;;;;20.30;64.80;;;;;;6169224;23;19967;-84
2022/04/27 08:39:37;;;;;;;;;;;18.90;63.30;;;;;;6141734;23;19905;-85
2022/04/27 08:42:06;;;;;;;;;;;18.70;64.00;;;;;;6170452;23;19924;-86
2022/04/27 08:44:35;;;;;;;;;;;19.10;62.50;;;;;;6144078;23;19911;-83
2022/04/27 08:47:19;;;;;;;;;;;19.40;62.40;;;;;;6169635;23;19943;-82
2022/04/27 08:49:55;;;;;;;;;;;21.50;61.80;;;;;;6144416;23;19904;-82
2022/04/27 08:52:33;;;;;;;;;;;21.50;60.70;;;;;;6169325;23;19911;-82
2022/04/27 08:57:24;;;;;;;;;;;19.30;57.10;;;;;;6170194;23;19927;-84
2022/04/27 09:00:03;;;;;;;;;;;18.00;58.50;;;;;;6170548;23;19915;-82
2022/04/27 09:02:32;;;;;;;;;;;20.20;57.40;;;;;;6143855;23;19911;-83
2022/04/27 09:07:52;;;;;;;;;;;20.00;53.50;;;;;;6181106;23;19935;-82
2022/04/27 09:10:19;;;;;;;;;;;20.10;52.30;;;;;;6192765;23;19918;-82
2022/04/27 09:13:06;;;;;;;;;;;20.10;50.70;;;;;;6193324;23;19901;-83
2022/04/27 09:15:51;;;;;;;;;;;20.30;50.00;;;;;;6158930;23;20018;-83
2022/04/27 09:21:20;;;;;;;;;;;21.10;45.80;;;;;;6174446;23;19928;-82
2022/04/27 09:23:48;;;;;;;;;;;20.20;47.40;;;;;;6150428;23;19910;-83
2022/04/27 09:26:22;;;;;;;;;;;20.50;45.70;;;;;;6165149;23;19950;-82
2022/04/27 09:28:54;;;;;;;;;;;21.40;47.60;;;;;;6201832;23;20205;-83
2022/04/27 09:31:26;;;;;;;;;;;21.40;48.60;;;;;;6202207;23;19969;-83
2022/04/27 09:36:57;;;;;;;;;;;21.20;48.80;;;;;;6201183;23;19923;-83
2022/04/27 09:39:26;;;;;;;;;;;21.60;45.70;;;;;;6173662;23;19911;-83
2022/04/27 09:44:42;;;;;;;;;;;21.80;44.90;;;;;;6199381;23;20183;-82
2022/04/27 09:47:12;;;;;;;;;;;23.30;45.50;;;;;;6196632;23;20485;-83
2022/04/27 09:52:32;;;;;;;;;;;22.50;42.60;;;;;;6169198;23;21674;-81
2022/04/27 10:03:57;;;;;;;;;;;22.80;39.60;;;;;;6169294;23;20047;-82
2022/04/27 10:15:52;;;;;;;;;;;22.00;41.90;;;;;;6165681;23;19920;-82
2022/04/27 10:18:57;;;;;;;;;;;22.80;40.40;;;;;;6141526;23;19927;-84
2022/04/27 10:22:01;;;;;;;;;;;20.80;39.50;;;;;;6187245;23;19920;-82
2022/04/27 10:24:46;;;;;;;;;;;23.80;41.60;;;;;;6119592;23;20545;-83
2022/04/27 10:27:53;;;;;;;;;;;22.50;40.00;;;;;;6143368;23;20429;-83
2022/04/27 10:36:57;;;;;;;;;;;23.80;38.30;;;;;;6176674;23;19992;-82
2022/04/27 10:39:47;;;;;;;;;;;24.40;39.60;;;;;;6192410;23;19944;-84
2022/04/27 10:42:19;;;;;;;;;;;24.30;37.30;;;;;;6193116;23;19900;-82
2022/04/27 10:48:13;;;;;;;;;;;25.70;39.60;;;;;;6131794;23;19923;-83
2022/04/27 10:51:11;;;;;;;;;;;25.80;38.30;;;;;;6107668;23;19949;-82
2022/04/27 10:53:48;;;;;;;;;;;23.30;36.40;;;;;;6195212;23;19904;-82
2022/04/27 10:56:41;;;;;;;;;;;24.60;37.50;;;;;;6109441;23;19909;-81
2022/04/27 10:59:27;;;;;;;;;;;25.70;38.00;;;;;;6085464;23;19905;-82
2022/04/27 11:01:56;;;;;;;;;;;23.20;36.50;;;;;;6119280;23;19919;-83
2022/04/27 11:12:33;;;;;;;;;;;24.60;35.70;;;;;;6170858;23;19921;-81
2022/04/27 11:14:59;;;;;;;;;;;26.20;37.00;;;;;;6143642;23;20304;-79
2022/04/27 11:17:30;;;;;;;;;;;25.00;36.90;;;;;;6170461;23;19905;-79
2022/04/27 11:19:56;;;;;;;;;;;24.60;36.60;;;;;;6170551;23;19904;-78
2022/04/27 11:24:53;;;;;;;;;;;24.50;38.80;;;;;;6169976;23;20355;-78
2022/04/27 11:27:26;;;;;;;;;;;25.00;37.90;;;;;;6144147;23;19923;-79
2022/04/27 11:29:52;;;;;;;;;;;25.00;36.20;;;;;;6171275;23;19959;-79
2022/04/27 11:32:47;;;;;;;;;;;24.30;37.40;;;;;;6170554;23;19911;-79
2022/04/27 11:35:13;;;;;;;;;;;23.40;37.40;;;;;;6152602;23;19920;-79
2022/04/27 11:37:38;;;;;;;;;;;23.80;38.70;;;;;;6143980;23;20024;-78
2022/04/27 11:40:25;;;;;;;;;;;24.30;39.40;;;;;;6168780;23;19955;-79
2022/04/27 11:42:58;;;;;;;;;;;25.10;37.40;;;;;;6169203;23;20426;-79
2022/04/27 11:45:35;;;;;;;;;;;26.10;38.30;;;;;;6169704;23;19990;-80
2022/04/27 11:48:22;;;;;;;;;;;27.00;37.80;;;;;;6168690;23;19912;-79
2022/04/27 11:50:48;;;;;;;;;;;26.70;34.80;;;;;;6168595;23;19905;-80
2022/04/27 11:53:27;;;;;;;;;;;27.40;35.70;;;;;;6168759;23;19908;-80
2022/04/27 11:56:30;;;;;;;;;;;28.60;35.50;;;;;;6142540;23;19905;-82
2022/04/27 11:59:08;;;;;;;;;;;27.70;35.00;;;;;;6169269;23;20387;-81
2022/04/27 12:01:34;;;;;;;;;;;29.10;35.80;;;;;;6168710;23;19916;-82
2022/04/27 12:04:06;;;;;;;;;;;26.80;35.00;;;;;;6168590;22;20248;-80
2022/04/27 12:06:52;;;;;;;;;;;27.40;34.40;;;;;;6142023;23;19908;-80
2022/04/27 12:09:34;;;;;;;;;;;27.80;36.20;;;;;;6166300;23;20324;-81
2022/04/27 12:14:39;;;;;;;;;;;28.40;33.80;;;;;;6167027;23;19927;-80
2022/04/27 12:17:35;;;;;;;;;;;;;;;;;;;;;
2022/04/27 12:19:56;;;;;;;;;;;29.30;35.30;;;;;;6193626;23;19915;-84
2022/04/27 12:25:01;;;;;;;;;;;30.60;32.00;;;;;;6167923;23;19920;-80
2022/04/27 12:30:36;;;;;;;;;;;30.00;32.10;;;;;;6174591;22;19931;-81
2022/04/27 12:33:33;;;;;;;;;;;29.60;31.70;;;;;;6142448;23;20478;-81
2022/04/27 12:39:20;;;;;;;;;;;29.60;31.20;;;;;;6160841;23;20453;-82
2022/04/27 12:42:19;;;;;;;;;;;29.80;31.00;;;;;;6105963;23;19912;-80
2022/04/27 12:54:52;;;;;;;;;;;27.20;30.30;;;;;;6111306;23;19916;-81
2022/04/27 12:57:23;;;;;;;;;;;27.40;32.10;;;;;;6110995;23;19971;-81
2022/04/27 13:00:10;;;;;;;;;;;27.00;33.20;;;;;;6128664;23;20125;-81
2022/04/27 13:02:43;;;;;;;;;;;26.90;33.70;;;;;;6173827;23;20603;-80
2022/04/27 13:05:27;;;;;;;;;;;25.10;33.90;;;;;;6173203;23;19915;-81
2022/04/27 13:13:24;;;;;;;;;;;28.20;37.70;;;;;;6169365;23;19950;-80
2022/04/27 13:19:04;;;;;;;;;;;26.70;35.20;;;;;;6169650;23;19927;-80
2022/04/27 13:21:30;;;;;;;;;;;26.30;35.40;;;;;;6169990;23;20569;-81
2022/04/27 13:26:42;;;;;;;;;;;25.50;35.50;;;;;;6168820;23;19924;-80
2022/04/27 13:29:14;;;;;;;;;;;25.10;36.30;;;;;;6144026;23;20429;-80
2022/04/27 13:31:51;;;;;;;;;;;25.90;36.80;;;;;;6169647;23;20031;-80
2022/04/27 13:34:23;;;;;;;;;;;23.70;35.90;;;;;;6170166;23;19904;-83
2022/04/27 13:37:04;;;;;;;;;;;24.10;36.40;;;;;;6164387;23;19916;-82
2022/04/27 13:39:30;;;;;;;;;;;26.20;36.70;;;;;;6150431;23;20007;-81
2022/04/27 13:51:17;;;;;;;;;;;31.10;34.10;;;;;;6154923;23;19921;-81
2022/04/27 13:53:43;;;;;;;;;;;26.30;30.00;;;;;;6165629;23;19912;-82
2022/04/27 13:56:09;;;;;;;;;;;30.00;32.00;;;;;;6162385;23;19972;-78
2022/04/27 13:58:35;;;;;;;;;;;29.60;32.80;;;;;;6170298;23;19904;-81
2022/04/27 14:01:01;;;;;;;;;;;29.90;32.30;;;;;;6171629;23;19915;-81
2022/04/27 14:03:27;;;;;;;;;;;30.30;31.80;;;;;;6171834;23;19908;-81
2022/04/27 14:05:55;;;;;;;;;;;29.70;32.40;;;;;;6174416;23;19916;-78
2022/04/27 14:08:21;;;;;;;;;;;29.90;32.10;;;;;;6171956;23;19912;-78
2022/04/27 14:10:48;;;;;;;;;;;28.80;31.40;;;;;;6170027;23;19905;-79
2022/04/27 14:13:14;;;;;;;;;;;29.50;32.40;;;;;;6169339;23;19905;-79
2022/04/27 14:18:29;;;;;;;;;;;29.50;31.90;;;;;;6168698;23;20390;-77
2022/04/27 14:20:55;;;;;;;;;;;28.40;32.60;;;;;;6168744;23;19966;-79
2022/04/27 14:23:23;;;;;;;;;;;27.40;33.50;;;;;;6169012;23;19912;-79
2022/04/27 14:25:49;;;;;;;;;;;27.00;34.20;;;;;;6168574;23;20489;-78
2022/04/27 14:28:15;;;;;;;;;;;26.00;34.50;;;;;;6168266;23;19927;-74
2022/04/27 14:30:41;;;;;;;;;;;25.60;35.20;;;;;;6141240;23;19983;-73
2022/04/27 14:33:08;;;;;;;;;;;25.20;35.70;;;;;;6167166;23;19938;-75
2022/04/27 14:35:35;;;;;;;;;;;24.70;36.50;;;;;;6167355;23;19918;-75
2022/04/27 14:38:01;;;;;;;;;;;24.30;37.40;;;;;;6167310;23;19912;-77
2022/04/27 14:40:27;;;;;;;;;;;23.90;38.10;;;;;;6167253;23;20340;-82
2022/04/27 14:43:14;;;;;;;;;;;23.40;39.00;;;;;;6166579;23;19904;-81
2022/04/27 14:45:46;;;;;;;;;;;23.10;39.60;;;;;;6166667;23;19908;-78
2022/04/27 14:48:12;;;;;;;;;;;22.60;40.80;;;;;;6141065;23;19908;-78
2022/04/27 14:50:58;;;;;;;;;;;22.10;41.40;;;;;;6167310;23;19962;-78
2022/04/27 14:53:30;;;;;;;;;;;22.10;41.90;;;;;;6168176;23;19948;-80
2022/04/27 14:55:56;;;;;;;;;;;22.10;41.20;;;;;;6167432;23;20529;-78
2022/04/27 14:58:21;;;;;;;;;;;22.10;41.70;;;;;;6141276;23;19904;-78
2022/04/27 15:00:47;;;;;;;;;;;22.00;42.00;;;;;;6141222;23;19911;-82
2022/04/27 15:03:12;;;;;;;;;;;22.00;43.40;;;;;;6168738;23;19904;-81
2022/04/27 15:05:41;;;;;;;;;;;21.90;43.60;;;;;;6168213;23;20508;-80
2022/04/27 15:08:15;;;;;;;;;;;21.40;49.70;;;;;;6167888;23;19922;-80
2022/04/27 15:10:56;;;;;;;;;;;21.00;54.30;;;;;;6158387;23;19943;-79
2022/04/27 15:13:22;;;;;;;;;;;19.30;55.10;;;;;;6195620;23;19948;-79
2022/04/27 15:15:47;;;;;;;;;;;20.10;60.00;;;;;;6198272;23;20469;-78
2022/04/27 15:18:16;;;;;;;;;;;19.90;60.70;;;;;;6198203;23;20480;-81
2022/04/27 15:23:32;;;;;;;;;;;19.90;64.50;;;;;;6198116;23;19912;-78
2022/04/27 15:25:57;;;;;;;;;;;20.60;63.10;;;;;;6197988;23;19900;-79
2022/04/27 15:28:23;;;;;;;;;;;21.60;60.90;;;;;;6198872;23;19944;-81
2022/04/27 15:30:49;;;;;;;;;;;22.40;59.00;;;;;;6196959;23;19938;-80
2022/04/27 15:33:19;;;;;;;;;;;22.90;57.10;;;;;;6197919;23;19904;-79
2022/04/27 15:35:46;;;;;;;;;;;23.50;56.20;;;;;;6198620;23;20070;-80
2022/04/27 15:38:17;;;;;;;;;;;23.70;55.20;;;;;;6198005;23;20499;-80
2022/04/27 15:40:45;;;;;;;;;;;23.80;54.70;;;;;;6186154;23;20552;-80
2022/04/27 15:43:11;;;;;;;;;;;23.30;55.60;;;;;;6142018;23;20371;-78
2022/04/27 15:45:55;;;;;;;;;;;20.70;56.20;;;;;;6143246;23;19909;-80
2022/04/27 15:48:29;;;;;;;;;;;21.90;58.70;;;;;;6170059;23;19916;-79
2022/04/27 15:50:54;;;;;;;;;;;22.00;61.30;;;;;;6169812;23;19909;-79
2022/04/27 15:53:23;;;;;;;;;;;20.80;62.50;;;;;;6174969;23;19900;-79
2022/04/27 15:55:51;;;;;;;;;;;20.40;63.60;;;;;;6185789;23;20382;-79
2022/04/27 15:58:18;;;;;;;;;;;20.70;65.80;;;;;;6153907;23;19900;-78
2022/04/27 16:00:46;;;;;;;;;;;19.80;66.30;;;;;;6171692;23;19987;-80
2022/04/27 16:03:12;;;;;;;;;;;19.50;68.30;;;;;;6141134;23;19908;-81
2022/04/27 16:05:38;;;;;;;;;;;19.30;69.60;;;;;;6143021;23;20497;-79
2022/04/27 16:08:04;;;;;;;;;;;19.20;71.00;;;;;;6145044;23;19939;-80
2022/04/27 16:10:30;;;;;;;;;;;19.10;71.90;;;;;;6171515;23;19959;-81
2022/04/27 16:12:59;;;;;;;;;;;19.00;74.20;;;;;;6171826;23;19912;-78
2022/04/27 16:15:27;;;;;;;;;;;20.20;75.70;;;;;;6170594;23;19966;-81
2022/04/27 16:17:56;;;;;;;;;;;18.90;76.40;;;;;;6152910;23;19920;-80
2022/04/27 16:20:22;;;;;;;;;;;21.10;78.40;;;;;;6200979;23;19953;-78
2022/04/27 16:23:07;;;;;;;;;;;18.60;79.60;;;;;;6199608;23;20709;-82
2022/04/27 16:25:34;;;;;;;;;;;18.40;80.10;;;;;;6200168;23;19904;-80
2022/04/27 16:28:08;;;;;;;;;;;18.20;83.10;;;;;;6199900;23;20029;-81
2022/04/27 16:30:34;;;;;;;;;;;18.10;85.10;;;;;;6200419;23;20556;-82
2022/04/27 16:33:12;;;;;;;;;;;17.70;88.90;;;;;;6173976;23;19954;-82
2022/04/27 16:35:37;;;;;;;;;;;17.20;90.50;;;;;;6200351;23;19922;-80
2022/04/27 16:38:03;;;;;;;;;;;16.90;91.70;;;;;;6199807;23;19982;-81
2022/04/27 16:40:41;;;;;;;;;;;16.80;91.80;;;;;;6199918;23;19912;-79
2022/04/27 16:43:28;;;;;;;;;;;16.70;91.80;;;;;;6173406;23;19904;-81
2022/04/27 16:45:54;;;;;;;;;;;16.80;92.10;;;;;;6174316;23;19904;-82
2022/04/27 16:48:32;;;;;;;;;;;16.80;93.20;;;;;;6199606;23;19916;-82
2022/04/27 16:51:04;;;;;;;;;;;17.60;93.70;;;;;;6200084;23;19907;-80
2022/04/27 16:53:34;;;;;;;;;;;12.80;92.70;;;;;;6173781;23;19911;-81
2022/04/27 16:56:11;;;;;;;;;;;16.10;94.40;;;;;;6172981;23;20351;-81
2022/04/27 16:58:37;;;;;;;;;;;16.20;94.20;;;;;;6199907;23;19912;-81
2022/04/27 17:01:03;;;;;;;;;;;15.80;94.30;;;;;;6175632;23;20395;-81
2022/04/27 17:03:29;;;;;;;;;;;15.70;94.70;;;;;;6170312;23;19908;-81
2022/04/27 17:06:10;;;;;;;;;;;15.70;94.60;;;;;;6143648;23;20544;-81
2022/04/27 17:08:53;;;;;;;;;;;15.60;94.80;;;;;;6168931;23;19996;-81
2022/04/27 17:11:31;;;;;;;;;;;13.50;95.20;;;;;;6169751;23;20551;-81
2022/04/27 17:13:56;;;;;;;;;;;15.30;95.70;;;;;;6143820;23;19963;-80
2022/04/27 17:16:25;;;;;;;;;;;15.00;96.00;;;;;;6143753;23;19904;-80
2022/04/27 17:21:31;;;;;;;;;;;15.00;96.60;;;;;;6081159;23;2031545;-83
2022/04/27 17:24:03;;;;;;;;;;;14.70;97.10;;;;;;6169593;23;19908;-82
2022/04/27 17:29:15;;;;;;;;;;;14.60;97.90;;;;;;6169391;23;19970;-82
2022/04/27 17:31:40;;;;;;;;;;;14.60;98.20;;;;;;6170111;23;19946;-86
2022/04/27 17:34:06;;;;;;;;;;;14.40;98.90;;;;;;6143858;23;19928;-83
2022/04/27 17:36:32;;;;;;;;;;;14.30;99.90;;;;;;6171510;23;19911;-80
2022/04/27 17:39:01;;;;;;;;;;;14.10;99.90;;;;;;6176675;23;19927;-85
2022/04/27 17:41:29;;;;;;;;;;;14.00;99.90;;;;;;6177629;23;19900;-85
2022/04/27 17:43:55;;;;;;;;;;;13.90;99.90;;;;;;6154910;23;19928;-81
2022/04/27 17:46:20;;;;;;;;;;;13.60;99.90;;;;;;6208639;23;19920;-83
2022/04/27 17:48:47;;;;;;;;;;;13.70;99.90;;;;;;6205487;23;19916;-78
2022/04/27 17:51:13;;;;;;;;;;;13.50;99.90;;;;;;6202160;23;19966;-80
2022/04/27 17:53:39;;;;;;;;;;;13.40;99.90;;;;;;6201022;23;19908;-77
2022/04/27 17:56:05;;;;;;;;;;;13.30;99.90;;;;;;6200514;23;20366;-81
2022/04/27 17:58:30;;;;;;;;;;;13.20;99.90;;;;;;6199758;23;20356;-78
2022/04/27 18:00:56;;;;;;;;;;;13.20;99.90;;;;;;6199348;23;20350;-78
2022/04/27 18:03:22;;;;;;;;;;;13.10;99.90;;;;;;6199496;23;19903;-88
2022/04/27 18:05:47;;;;;;;;;;;13.20;99.90;;;;;;6199895;23;19911;-81
2022/04/27 18:08:13;;;;;;;;;;;13.10;99.90;;;;;;6199116;23;19912;-82
2022/04/27 18:10:38;;;;;;;;;;;13.00;99.90;;;;;;6206094;23;20464;-88
2022/04/27 18:13:04;;;;;;;;;;;12.80;99.90;;;;;;6202703;23;19908;-87
2022/04/27 18:15:46;;;;;;;;;;;13.30;99.90;;;;;;6201161;23;19908;-85
2022/04/27 18:18:15;;;;;;;;;;;12.70;99.90;;;;;;6208251;23;19912;-78
2022/04/27 18:20:48;;;;;;;;;;;12.70;99.90;;;;;;6180941;23;19911;-83
2022/04/27 18:23:14;;;;;;;;;;;12.70;99.90;;;;;;6208910;23;20169;-87
2022/04/27 18:25:47;;;;;;;;;;;12.50;99.90;;;;;;6187054;23;19923;-85
2022/04/27 18:28:13;;;;;;;;;;;12.40;99.90;;;;;;6174524;23;19923;-83
2022/04/27 18:33:48;;;;;;;;;;;13.20;99.70;;;;;;6021286;23;20595;-82
2022/04/27 18:36:13;;;;;;;;;;;12.60;99.30;;;;;;6056913;23;19913;-84
2022/04/27 18:38:51;;;;;;;;;;;12.30;98.70;;;;;;6132256;23;19971;-82
2022/04/27 18:41:31;;;;;;;;;;;12.60;98.80;;;;;;6205322;23;19931;-81
2022/04/27 18:52:26;;;;;;;;;;;12.20;99.30;;;;;;6183874;23;19910;-81
2022/04/27 18:54:52;;;;;;;;;;;12.10;98.90;;;;;;6155284;23;19904;-82
2022/04/27 18:57:18;;;;;;;;;;;12.00;98.30;;;;;;6177727;23;19924;-85
2022/04/27 18:59:54;;;;;;;;;;;12.00;98.50;;;;;;6189003;23;19904;-85
2022/04/27 19:02:32;;;;;;;;;;;11.90;98.30;;;;;;6191312;23;19991;-86
2022/04/27 19:05:01;;;;;;;;;;;12.10;98.30;;;;;;6181452;23;20183;-85
2022/04/27 19:07:33;;;;;;;;;;;12.00;98.30;;;;;;6152522;23;19995;-87
2022/04/27 19:10:00;;;;;;;;;;;12.10;98.40;;;;;;6144203;23;19970;-81
2022/04/27 19:15:12;;;;;;;;;;;11.90;98.00;;;;;;6172176;23;19904;-83
2022/04/27 19:17:37;;;;;;;;;;;11.50;97.50;;;;;;6175676;23;19919;-83
2022/04/27 19:20:31;;;;;;;;;;;11.90;98.00;;;;;;6155709;23;19906;-83
2022/04/27 19:23:33;;;;;;;;;;;11.80;97.10;;;;;;6054822;23;19906;-83
2022/04/27 19:26:19;;;;;;;;;;;11.70;97.70;;;;;;6054313;23;19906;-85
2022/04/27 19:31:44;;;;;;;;;;;11.80;97.70;;;;;;6204189;23;19935;-84
2022/04/27 19:47:22;;;;;;;;;;;11.50;97.30;;;;;;6163974;22;19974;-85
2022/04/27 19:52:52;;;;;;;;;;;11.50;97.60;;;;;;6198422;23;19904;-89
2022/04/27 19:55:10;;;;;;;;;;;11.40;98.10;;;;;;6209933;23;19909;-79
2022/04/27 19:57:54;;;;;;;;;;;11.70;97.80;;;;;;6184675;23;19908;-77
2022/04/27 20:00:23;;;;;;;;;;;12.20;98.00;;;;;;6210102;23;19893;-79
2022/04/27 20:02:49;;;;;;;;;;;11.30;97.70;;;;;;6183307;23;19904;-78
2022/04/27 20:05:15;;;;;;;;;;;11.30;97.80;;;;;;6205815;23;19936;-81
2022/04/27 20:07:42;;;;;;;;;;;11.20;97.60;;;;;;6181648;23;19900;-80
2022/04/27 20:10:09;;;;;;;;;;;11.20;97.50;;;;;;6209110;23;19936;-88
2022/04/27 20:12:35;;;;;;;;;;;11.20;98.00;;;;;;6193645;23;19903;-81
2022/04/27 20:15:10;;;;;;;;;;;11.70;97.90;;;;;;6183694;23;19927;-80
2022/04/27 20:17:56;;;;;;;;;;;11.20;98.10;;;;;;6180953;23;19901;-82
2022/04/27 20:20:35;;;;;;;;;;;11.20;97.70;;;;;;6207554;23;19892;-84
2022/04/27 20:23:13;;;;;;;;;;;;;;;;;;;;;
2022/04/27 20:25:50;;;;;;;;;;;11.20;98.50;;;;;;6178613;23;19912;-90
2022/04/27 20:28:18;;;;;;;;;;;11.00;98.50;;;;;;6203376;23;19900;-82
2022/04/27 20:30:56;;;;;;;;;;;11.30;98.60;;;;;;6204586;23;19907;-79
2022/04/27 20:39:17;;;;;;;;;;;11.10;98.70;;;;;;6186072;22;20580;-79
2022/04/27 20:48:32;;;;;;;;;;;11.10;99.20;;;;;;6151421;23;19955;-81
2022/04/27 20:51:19;;;;;;;;;;;12.90;99.90;;;;;;6133807;23;20526;-81
2022/04/27 20:53:57;;;;;;;;;;;11.20;99.90;;;;;;6165994;23;19908;-83
2022/04/27 20:56:34;;;;;;;;;;;12.10;99.90;;;;;;6157641;23;20198;-81
2022/04/27 20:59:33;;;;;;;;;;;10.00;99.90;;;;;;6174350;23;19908;-82
2022/04/27 21:02:07;;;;;;;;;;;10.80;99.90;;;;;;6144093;23;19900;-86
2022/04/27 21:04:44;;;;;;;;;;;9.80;99.90;;;;;;6171963;23;19901;-87
2022/04/27 21:07:11;;;;;;;;;;;11.10;99.90;;;;;;6121851;23;19913;-81
2022/04/27 21:09:46;;;;;;;;;;;11.10;99.90;;;;;;6178469;23;19924;-83
2022/04/27 21:12:12;;;;;;;;;;;11.00;99.90;;;;;;6144234;23;19921;-78
2022/04/27 21:14:38;;;;;;;;;;;10.70;99.90;;;;;;6145091;23;19932;-87
2022/04/27 21:17:04;;;;;;;;;;;8.30;99.90;;;;;;6143767;23;19901;-81
2022/04/27 21:19:30;;;;;;;;;;;7.90;99.90;;;;;;6148774;23;19916;-82
2022/04/27 21:22:02;;;;;;;;;;;10.40;99.90;;;;;;6147047;23;19913;-79
2022/04/27 21:24:32;;;;;;;;;;;8.30;99.90;;;;;;6146284;23;19952;-84
2022/04/27 21:26:59;;;;;;;;;;;11.40;99.90;;;;;;6139124;23;19901;-79
2022/04/27 21:29:33;;;;;;;;;;;10.40;99.90;;;;;;6135178;23;19916;-81
2022/04/27 21:32:20;;;;;;;;;;;10.40;99.90;;;;;;6138217;23;19901;-79
2022/04/27 21:34:46;;;;;;;;;;;8.80;99.90;;;;;;6141104;23;19912;-79
2022/04/27 21:47:57;;;;;;;;;;;12.70;99.90;;;;;;6112863;23;19928;-78
2022/04/27 21:50:23;;;;;;;;;;;10.60;99.90;;;;;;6112206;23;19914;-80
2022/04/27 21:53:04;;;;;;;;;;;10.20;99.90;;;;;;6118742;23;19905;-76
2022/04/27 22:06:43;;;;;;;;;;;8.60;99.90;;;;;;6183479;23;19900;-84
2022/04/27 22:09:14;;;;;;;;;;;11.60;99.90;;;;;;6205469;23;19920;-81
2022/04/27 22:14:52;;;;;;;;;;;10.30;99.90;;;;;;6207490;23;19911;-81
2022/04/27 22:17:40;;;;;;;;;;;10.80;99.90;;;;;;6143710;23;19924;-82
2022/04/27 22:20:12;;;;;;;;;;;10.40;99.90;;;;;;6115717;23;19909;-78
2022/04/27 22:22:49;;;;;;;;;;;10.40;99.90;;;;;;6115524;23;19909;-92
2022/04/27 22:25:16;;;;;;;;;;;6.90;99.90;;;;;;6113214;23;19901;-80
2022/04/27 22:27:53;;;;;;;;;;;10.40;99.90;;;;;;6111968;23;19909;-84
2022/04/27 22:30:22;;;;;;;;;;;11.30;99.90;;;;;;6092006;23;19916;-79
2022/04/27 22:33:28;;;;;;;;;;;10.50;99.80;;;;;;6120178;23;19909;-83
2022/04/27 22:35:53;;;;;;;;;;;11.40;99.90;;;;;;6120872;23;19894;-82
2022/04/27 22:38:18;;;;;;;;;;;10.40;99.90;;;;;;6093084;23;19890;-82
2022/04/27 22:40:56;;;;;;;;;;;10.40;99.70;;;;;;6116894;23;19901;-83
2022/04/27 22:43:22;;;;;;;;;;;10.20;99.50;;;;;;6118286;23;19913;-78
2022/04/27 22:45:52;;;;;;;;;;;10.30;99.40;;;;;;6048229;23;19894;-80
2022/04/27 22:48:36;;;;;;;;;;;10.30;98.40;;;;;;6049871;23;19949;-79
2022/04/27 22:51:02;;;;;;;;;;;10.70;99.40;;;;;;6117446;23;19938;-79
2022/04/27 22:53:42;;;;;;;;;;;10.20;99.30;;;;;;6137177;23;19939;-79
2022/04/27 22:56:28;;;;;;;;;;;10.50;99.50;;;;;;6182947;23;19935;-80
2022/04/27 22:59:23;;;;;;;;;;;10.70;99.70;;;;;;6170864;23;19973;-82
2022/04/27 23:01:48;;;;;;;;;;;10.20;99.00;;;;;;6159980;23;19915;-79
2022/04/27 23:04:17;;;;;;;;;;;10.60;99.70;;;;;;6205922;23;19889;-80
2022/04/27 23:07:09;;;;;;;;;;;10.40;99.80;;;;;;6131522;23;19915;-83
2022/04/27 23:12:31;;;;;;;;;;;10.10;99.90;;;;;;6210120;23;19924;-80
2022/04/27 23:15:02;;;;;;;;;;;10.50;99.90;;;;;;6156962;23;19904;-79
2022/04/27 23:20:29;;;;;;;;;;;9.90;99.90;;;;;;6210846;22;19905;-79
2022/04/27 23:22:57;;;;;;;;;;;10.10;99.90;;;;;;6181095;23;19953;-80
2022/04/27 23:25:23;;;;;;;;;;;9.90;99.90;;;;;;6207895;23;19908;-79
2022/04/27 23:27:48;;;;;;;;;;;9.90;99.90;;;;;;6180195;23;19932;-78
2022/04/27 23:33:41;;;;;;;;;;;8.40;99.30;;;;;;6201846;23;19924;-79
2022/04/27 23:36:41;;;;;;;;;;;10.70;99.90;;;;;;6182396;23;19912;-81
2022/04/27 23:59:44;;;;;;;;;;;9.70;99.80;;;;;;6210882;23;19928;-79
